createdAt,value
2018-03-25T00:01:04.682Z,20.00
2018-03-25T00:03:31.591Z,20.00
2018-03-25T00:05:58.524Z,20.20
2018-03-25T00:08:25.520Z,20.30
2018-03-25T00:10:53.655Z,19.90
2018-03-25T00:13:21.331Z,19.90
2018-03-25T00:15:48.277Z,19.90
2018-03-25T00:18:15.152Z,20.00
2018-03-25T00:20:42.760Z,20.20
2018-03-25T00:23:09.980Z,19.90
2018-03-25T00:25:38.438Z,20.10
2018-03-25T00:28:06.031Z,20.10
2018-03-25T00:30:32.945Z,19.90
2018-03-25T00:32:59.948Z,19.90
2018-03-25T00:35:26.899Z,19.50
2018-03-25T00:37:54.620Z,20.20
2018-03-25T00:40:22.892Z,20.10
2018-03-25T00:42:49.846Z,19.50
2018-03-25T00:45:16.800Z,19.40
2018-03-25T00:47:43.776Z,19.40
2018-03-25T00:50:11.409Z,19.90
2018-03-25T00:52:38.925Z,20.10
2018-03-25T00:55:05.728Z,20.10
2018-03-25T00:57:32.675Z,19.50
2018-03-25T00:59:59.732Z,20.00
2018-03-25T01:02:27.388Z,19.40
2018-03-25T01:04:54.336Z,19.50
2018-03-25T01:07:21.525Z,19.40
2018-03-25T01:09:49.184Z,19.30
2018-03-25T01:12:16.123Z,19.60
2018-03-25T01:14:43.777Z,19.40
2018-03-25T01:17:10.708Z,19.50
2018-03-25T01:19:37.888Z,19.30
2018-03-25T01:22:04.830Z,19.30
2018-03-25T01:24:32.292Z,19.40
2018-03-25T01:26:59.840Z,19.50
2018-03-25T01:29:26.840Z,19.30
2018-03-25T01:31:54.429Z,19.20
2018-03-25T01:34:21.325Z,19.50
2018-03-25T01:36:48.787Z,19.30
2018-03-25T01:39:16.562Z,19.50
2018-03-25T01:41:43.970Z,19.40
2018-03-25T01:44:11.738Z,19.20
2018-03-25T01:46:39.557Z,19.20
2018-03-25T01:49:06.605Z,19.30
2018-03-25T01:51:33.974Z,19.50
2018-03-25T01:54:01.645Z,19.20
2018-03-25T01:56:28.533Z,19.50
2018-03-25T01:58:55.445Z,19.40
2018-03-25T02:01:22.397Z,19.30
2018-03-25T02:03:50.012Z,19.20
2018-03-25T02:06:17.875Z,19.30
2018-03-25T02:08:44.976Z,19.20
2018-03-25T02:11:11.932Z,19.20
2018-03-25T02:13:39.611Z,19.20
2018-03-25T02:16:06.684Z,19.30
2018-03-25T02:18:34.990Z,19.10
2018-03-25T02:21:01.854Z,18.90
2018-03-25T02:23:28.928Z,18.80
2018-03-25T02:25:55.836Z,19.20
2018-03-25T02:28:23.200Z,18.80
2018-03-25T02:30:51.020Z,18.80
2018-03-25T02:33:17.897Z,18.90
2018-03-25T02:35:45.173Z,18.80
2018-03-25T02:38:12.180Z,18.80
2018-03-25T02:40:39.546Z,18.80
2018-03-25T02:43:08.328Z,18.80
2018-03-25T02:45:36.129Z,18.70
2018-03-25T02:48:02.980Z,18.80
2018-03-25T02:50:29.900Z,18.80
2018-03-25T02:52:57.198Z,18.80
2018-03-25T02:55:24.903Z,18.90
2018-03-25T02:57:51.863Z,18.70
2018-03-25T03:00:18.815Z,18.70
2018-03-25T03:02:45.775Z,18.70
2018-03-25T03:05:13.391Z,18.70
2018-03-25T03:07:40.212Z,18.70
2018-03-25T03:10:07.979Z,18.70
2018-03-25T03:12:35.567Z,18.60
2018-03-25T03:15:03.189Z,18.60
2018-03-25T03:17:30.664Z,18.60
2018-03-25T03:19:58.274Z,18.70
2018-03-25T03:22:25.471Z,18.90
2018-03-25T03:24:52.402Z,18.70
2018-03-25T03:27:19.828Z,18.70
2018-03-25T03:29:47.236Z,18.80
2018-03-25T03:32:14.183Z,18.70
2018-03-25T03:34:40.974Z,18.70
2018-03-25T03:37:08.447Z,18.70
2018-03-25T03:39:36.112Z,18.70
2018-03-25T03:42:03.008Z,18.70
2018-03-25T03:44:30.064Z,18.70
2018-03-25T03:46:57.021Z,18.80
2018-03-25T03:49:24.652Z,18.60
2018-03-25T03:51:51.734Z,18.70
2018-03-25T03:54:18.684Z,18.60
2018-03-25T03:56:45.745Z,18.60
2018-03-25T03:59:13.297Z,18.60
2018-03-25T04:01:40.211Z,18.60
2018-03-25T04:04:06.979Z,18.70
2018-03-25T04:06:33.841Z,18.60
2018-03-25T04:09:01.380Z,18.50
2018-03-25T04:11:28.253Z,18.60
2018-03-25T04:13:55.516Z,18.60
2018-03-25T04:16:22.586Z,18.70
2018-03-25T04:18:49.717Z,18.60
2018-03-25T04:21:17.392Z,18.60
2018-03-25T04:23:44.448Z,18.70
2018-03-25T04:26:11.499Z,18.60
2018-03-25T04:28:38.540Z,18.60
2018-03-25T04:31:05.551Z,18.60
2018-03-25T04:33:33.048Z,18.60
2018-03-25T04:35:59.862Z,18.40
2018-03-25T04:38:26.695Z,18.70
2018-03-25T04:40:53.501Z,18.10
2018-03-25T04:43:20.992Z,18.60
2018-03-25T04:45:49.351Z,18.60
2018-03-25T04:48:16.204Z,18.60
2018-03-25T04:50:43.379Z,18.60
2018-03-25T04:53:11.022Z,18.60
2018-03-25T04:55:38.693Z,18.70
2018-03-25T04:58:06.328Z,18.20
2018-03-25T05:00:33.197Z,18.60
2018-03-25T05:03:00.151Z,18.70
2018-03-25T05:05:27.136Z,18.00
2018-03-25T05:07:55.460Z,18.60
2018-03-25T05:10:22.552Z,18.00
2018-03-25T05:12:49.487Z,18.00
2018-03-25T05:15:16.599Z,18.00
2018-03-25T05:17:43.465Z,18.10
2018-03-25T05:20:10.560Z,18.70
2018-03-25T05:22:37.590Z,18.60
2018-03-25T05:25:04.443Z,18.20
2018-03-25T05:27:31.538Z,18.00
2018-03-25T05:29:58.548Z,18.00
2018-03-25T05:32:25.944Z,18.10
2018-03-25T05:34:54.274Z,18.00
2018-03-25T05:37:21.145Z,18.10
2018-03-25T05:39:48.090Z,18.10
2018-03-25T05:42:15.744Z,18.00
2018-03-25T05:44:43.440Z,18.10
2018-03-25T05:47:10.569Z,18.00
2018-03-25T05:49:38.227Z,18.10
2018-03-25T05:52:05.088Z,18.00
2018-03-25T05:54:32.754Z,18.10
2018-03-25T05:56:59.701Z,18.10
2018-03-25T05:59:26.757Z,18.10
2018-03-25T06:01:53.729Z,17.90
2018-03-25T06:04:21.576Z,18.00
2018-03-25T06:06:49.362Z,18.10
2018-03-25T06:09:16.367Z,18.00
2018-03-25T06:11:43.377Z,18.60
2018-03-25T06:14:11.220Z,19.30
2018-03-25T06:16:38.170Z,19.30
2018-03-25T06:19:05.074Z,20.10
2018-03-25T06:21:32.279Z,20.90
2018-03-25T06:23:59.485Z,21.30
2018-03-25T06:26:27.085Z,21.60
2018-03-25T06:28:53.951Z,21.90
2018-03-25T06:31:20.895Z,22.70
2018-03-25T06:33:48.781Z,22.50
2018-03-25T06:36:15.623Z,23.00
2018-03-25T06:38:42.720Z,23.00
2018-03-25T06:41:09.981Z,23.10
2018-03-25T06:43:37.447Z,23.20
2018-03-25T06:46:04.561Z,23.20
2018-03-25T06:48:31.568Z,23.40
2018-03-25T06:50:59.818Z,22.70
2018-03-25T06:53:26.629Z,23.00
2018-03-25T06:55:53.780Z,22.60
2018-03-25T06:58:21.441Z,23.00
2018-03-25T07:00:48.312Z,22.50
2018-03-25T07:03:15.263Z,22.50
2018-03-25T07:05:43.231Z,22.40
2018-03-25T07:08:11.697Z,22.10
2018-03-25T07:10:38.656Z,22.00
2018-03-25T07:13:05.824Z,22.10
2018-03-25T07:15:32.726Z,21.90
2018-03-25T07:17:59.944Z,22.10
2018-03-25T07:20:27.897Z,21.90
2018-03-25T07:22:54.840Z,21.90
2018-03-25T07:25:22.872Z,21.80
2018-03-25T07:27:49.915Z,21.90
2018-03-25T07:30:16.919Z,21.50
2018-03-25T07:32:44.280Z,22.00
2018-03-25T07:35:12.057Z,21.70
2018-03-25T07:37:39.638Z,21.30
2018-03-25T07:40:07.032Z,21.30
2018-03-25T07:42:34.733Z,21.20
2018-03-25T07:45:01.563Z,21.30
2018-03-25T07:47:28.441Z,21.60
2018-03-25T07:49:56.114Z,21.30
2018-03-25T07:52:23.163Z,21.80
2018-03-25T07:54:50.043Z,21.80
2018-03-25T07:57:18.366Z,21.60
2018-03-25T07:59:45.244Z,21.70
2018-03-25T08:02:12.103Z,21.20
2018-03-25T08:04:39.609Z,21.20
2018-03-25T08:07:06.603Z,21.20
2018-03-25T08:09:33.445Z,21.20
2018-03-25T08:12:00.324Z,21.60
2018-03-25T08:14:28.483Z,21.20
2018-03-25T08:16:55.481Z,21.60
2018-03-25T08:19:22.374Z,21.60
2018-03-25T08:21:49.420Z,21.80
2018-03-25T08:24:16.943Z,21.80
2018-03-25T08:26:43.953Z,21.80
2018-03-25T08:29:10.910Z,21.90
2018-03-25T08:31:38.769Z,21.90
2018-03-25T08:34:05.732Z,21.90
2018-03-25T08:36:32.764Z,22.10
2018-03-25T08:39:00.542Z,22.10
2018-03-25T08:41:27.452Z,21.90
2018-03-25T08:43:54.623Z,21.90
2018-03-25T08:46:22.416Z,21.70
2018-03-25T08:48:49.441Z,21.80
2018-03-25T08:51:16.433Z,21.30
2018-03-25T08:53:44.334Z,21.80
2018-03-25T08:56:11.337Z,21.80
2018-03-25T08:58:39.218Z,21.90
2018-03-25T09:01:06.414Z,22.50
2018-03-25T09:03:33.309Z,22.60
2018-03-25T09:06:00.775Z,22.70
2018-03-25T09:08:28.144Z,22.60
2018-03-25T09:10:55.077Z,22.30
2018-03-25T09:13:21.953Z,22.60
2018-03-25T09:15:49.597Z,22.70
2018-03-25T09:18:16.444Z,22.80
2018-03-25T09:20:43.318Z,23.00
2018-03-25T09:23:11.581Z,22.50
2018-03-25T09:25:38.439Z,22.80
2018-03-25T09:28:05.864Z,22.60
2018-03-25T09:30:32.860Z,22.90
2018-03-25T09:33:00.010Z,22.10
2018-03-25T09:35:27.543Z,22.20
2018-03-25T09:37:54.413Z,21.90
2018-03-25T09:40:21.768Z,21.50
2018-03-25T09:42:48.720Z,21.30
2018-03-25T09:45:15.771Z,21.20
2018-03-25T09:47:43.492Z,21.10
2018-03-25T09:50:10.893Z,21.10
2018-03-25T09:52:38.681Z,20.90
2018-03-25T09:55:05.502Z,21.10
2018-03-25T09:57:33.577Z,20.90
2018-03-25T10:00:01.267Z,20.50
2018-03-25T10:02:28.141Z,20.50
2018-03-25T10:04:55.060Z,20.40
2018-03-25T10:07:22.138Z,20.40
2018-03-25T10:09:49.273Z,20.90
2018-03-25T10:12:16.069Z,20.90
2018-03-25T10:14:43.208Z,21.00
2018-03-25T10:17:10.113Z,20.80
2018-03-25T10:19:37.277Z,21.00
2018-03-25T10:22:04.374Z,21.00
2018-03-25T10:24:32.405Z,20.90
2018-03-25T10:26:59.358Z,21.00
2018-03-25T10:29:26.353Z,21.00
2018-03-25T10:31:53.253Z,20.90
2018-03-25T10:34:21.682Z,20.20
2018-03-25T10:36:48.948Z,20.40
2018-03-25T10:39:15.848Z,20.40
2018-03-25T10:41:42.730Z,20.40
2018-03-25T10:44:11.405Z,20.10
2018-03-25T10:46:39.817Z,20.30
2018-03-25T10:49:06.716Z,20.30
2018-03-25T10:51:34.128Z,20.30
2018-03-25T10:54:01.045Z,20.30
2018-03-25T10:56:28.643Z,20.20
2018-03-25T10:58:56.362Z,20.20
2018-03-25T11:01:23.304Z,20.10
2018-03-25T11:03:50.235Z,20.30
2018-03-25T11:06:18.029Z,20.20
2018-03-25T11:08:44.825Z,20.30
2018-03-25T11:11:12.641Z,20.00
2018-03-25T11:13:39.566Z,20.10
2018-03-25T11:16:06.767Z,20.00
2018-03-25T11:18:34.419Z,20.00
2018-03-25T11:21:01.314Z,20.00
2018-03-25T11:23:28.202Z,20.00
2018-03-25T11:25:55.094Z,20.00
2018-03-25T11:28:22.229Z,20.00
2018-03-25T11:30:49.787Z,20.00
2018-03-25T11:33:16.728Z,20.20
2018-03-25T11:35:43.704Z,20.00
2018-03-25T11:38:12.075Z,19.90
2018-03-25T11:40:38.957Z,20.00
2018-03-25T11:43:05.946Z,19.50
2018-03-25T11:45:33.030Z,20.10
2018-03-25T11:48:00.630Z,20.10
2018-03-25T11:50:28.173Z,19.50
2018-03-25T11:52:55.782Z,19.40
2018-03-25T11:55:23.085Z,19.50
2018-03-25T11:57:50.663Z,20.10
2018-03-25T12:00:18.400Z,19.50
2018-03-25T12:02:46.494Z,19.40
2018-03-25T12:05:13.773Z,19.40
2018-03-25T12:07:42.111Z,19.40
2018-03-25T12:10:09.083Z,19.40
2018-03-25T12:12:36.745Z,19.50
2018-03-25T12:15:03.712Z,19.50
2018-03-25T12:17:30.610Z,19.50
2018-03-25T12:19:58.321Z,19.40
2018-03-25T12:22:25.163Z,19.50
2018-03-25T12:24:52.101Z,19.50
2018-03-25T12:27:19.007Z,19.50
2018-03-25T12:29:46.207Z,19.40
2018-03-25T12:32:13.840Z,19.40
2018-03-25T12:34:40.932Z,19.50
2018-03-25T12:37:07.997Z,19.60
2018-03-25T12:39:35.109Z,19.40
2018-03-25T12:42:02.983Z,19.30
2018-03-25T12:44:30.085Z,19.30
2018-03-25T12:46:58.504Z,19.30
2018-03-25T12:49:25.559Z,19.50
2018-03-25T12:51:53.195Z,19.50
2018-03-25T12:54:21.651Z,19.40
2018-03-25T12:56:48.637Z,19.40
2018-03-25T12:59:16.285Z,19.30
2018-03-25T13:01:43.937Z,19.40
2018-03-25T13:04:10.838Z,19.30
2018-03-25T13:06:38.349Z,19.30
2018-03-25T13:09:05.402Z,19.40
2018-03-25T13:11:32.342Z,19.60
2018-03-25T13:13:59.175Z,19.40
2018-03-25T13:16:26.373Z,19.30
2018-03-25T13:18:54.431Z,19.30
2018-03-25T13:21:21.400Z,19.70
2018-03-25T13:23:49.157Z,19.30
2018-03-25T13:26:16.917Z,19.60
2018-03-25T13:28:43.825Z,19.40
2018-03-25T13:31:10.619Z,19.40
2018-03-25T13:33:38.482Z,19.40
2018-03-25T13:36:05.744Z,19.50
2018-03-25T13:38:32.637Z,19.40
2018-03-25T13:40:59.536Z,19.40
2018-03-25T13:43:26.561Z,19.60
2018-03-25T13:45:54.274Z,19.40
2018-03-25T13:48:21.158Z,19.30
2018-03-25T13:50:48.888Z,19.30
2018-03-25T13:53:17.249Z,19.50
2018-03-25T13:55:44.136Z,19.50
2018-03-25T13:58:11.820Z,19.30
2018-03-25T14:00:39.445Z,19.30
2018-03-25T14:03:06.332Z,19.40
2018-03-25T14:05:33.536Z,19.40
2018-03-25T14:08:00.658Z,19.40
2018-03-25T14:10:28.097Z,19.30
2018-03-25T14:12:55.796Z,19.50
2018-03-25T14:15:22.960Z,19.30
2018-03-25T14:17:49.830Z,19.50
2018-03-25T14:20:18.079Z,19.40
2018-03-25T14:22:45.088Z,19.30
2018-03-25T14:25:12.825Z,19.30
2018-03-25T14:27:40.456Z,19.40
2018-03-25T14:30:07.475Z,19.80
2018-03-25T14:32:34.817Z,20.30
2018-03-25T14:35:01.773Z,20.80
2018-03-25T14:37:29.125Z,20.90
2018-03-25T14:39:56.841Z,21.00
2018-03-25T14:42:23.842Z,21.10
2018-03-25T14:44:51.732Z,21.80
2018-03-25T14:47:20.070Z,21.90
2018-03-25T14:49:46.991Z,22.10
2018-03-25T14:52:14.200Z,22.60
2018-03-25T14:54:42.022Z,22.70
2018-03-25T14:57:09.736Z,22.80
2018-03-25T14:59:36.797Z,22.40
2018-03-25T15:02:04.511Z,22.20
2018-03-25T15:04:31.614Z,22.40
2018-03-25T15:06:59.434Z,22.50
2018-03-25T15:09:26.484Z,22.70
2018-03-25T15:11:53.493Z,22.80
2018-03-25T15:14:20.425Z,22.80
2018-03-25T15:16:47.741Z,23.00
2018-03-25T15:19:15.568Z,23.10
2018-03-25T15:21:42.976Z,22.90
2018-03-25T15:24:10.085Z,22.90
2018-03-25T15:26:37.230Z,22.90
2018-03-25T15:29:04.605Z,22.70
2018-03-25T15:31:32.720Z,22.50
2018-03-25T15:33:59.759Z,22.40
2018-03-25T15:36:27.288Z,22.30
2018-03-25T15:38:54.965Z,22.60
2018-03-25T15:41:22.988Z,22.70
2018-03-25T15:43:50.046Z,22.20
2018-03-25T15:46:18.062Z,22.00
2018-03-25T15:48:45.203Z,22.50
2018-03-25T15:51:12.333Z,22.00
2018-03-25T15:53:39.524Z,22.20
2018-03-25T15:56:06.708Z,21.90
2018-03-25T15:58:35.514Z,21.90
2018-03-25T16:01:02.911Z,21.90
2018-03-25T16:03:30.067Z,21.80
2018-03-25T16:05:57.140Z,21.80
2018-03-25T16:08:24.824Z,21.80
2018-03-25T16:10:52.574Z,21.70
2018-03-25T16:13:19.798Z,21.70
2018-03-25T16:15:47.157Z,21.40
2018-03-25T16:18:14.343Z,21.60
2018-03-25T16:20:41.480Z,21.70
2018-03-25T16:23:08.560Z,21.20
2018-03-25T16:25:36.124Z,21.30
2018-03-25T16:28:03.923Z,21.30
2018-03-25T16:30:31.758Z,21.20
2018-03-25T16:32:58.780Z,21.20
2018-03-25T16:35:25.752Z,21.10
2018-03-25T16:37:54.055Z,21.10
2018-03-25T16:40:21.833Z,21.10
2018-03-25T16:42:48.874Z,21.20
2018-03-25T16:45:16.945Z,21.00
2018-03-25T16:47:45.843Z,21.00
2018-03-25T16:50:13.739Z,21.00
2018-03-25T16:52:42.567Z,21.00
2018-03-25T16:55:09.805Z,21.00
2018-03-25T16:57:37.338Z,21.00
2018-03-25T17:00:04.782Z,21.00
2018-03-25T17:02:32.836Z,21.70
2018-03-25T17:05:00.491Z,21.70
2018-03-25T17:07:27.510Z,22.00
2018-03-25T17:09:55.350Z,22.40
2018-03-25T17:12:23.862Z,22.80
2018-03-25T17:14:51.705Z,23.50
2018-03-25T17:17:19.022Z,23.20
2018-03-25T17:19:46.943Z,23.50
2018-03-25T17:22:14.195Z,23.60
2018-03-25T17:24:41.160Z,23.70
2018-03-25T17:27:08.167Z,24.10
2018-03-25T17:29:35.266Z,23.90
2018-03-25T17:32:02.224Z,23.80
2018-03-25T17:34:29.569Z,23.70
2018-03-25T17:36:58.118Z,23.80
2018-03-25T17:39:25.222Z,23.70
2018-03-25T17:41:52.682Z,23.60
2018-03-25T17:44:20.604Z,23.00
2018-03-25T17:46:47.629Z,23.60
2018-03-25T17:49:14.737Z,22.90
2018-03-25T17:51:41.784Z,23.10
2018-03-25T17:54:08.906Z,22.90
2018-03-25T17:56:36.018Z,22.70
2018-03-25T17:59:03.372Z,22.30
2018-03-25T18:01:31.021Z,22.20
2018-03-25T18:03:58.064Z,22.00
2018-03-25T18:06:25.101Z,21.90
2018-03-25T18:08:52.141Z,21.60
2018-03-25T18:11:19.998Z,21.30
2018-03-25T18:13:47.628Z,21.40
2018-03-25T18:16:14.561Z,21.50
2018-03-25T18:18:41.629Z,21.40
2018-03-25T18:21:08.663Z,22.10
2018-03-25T18:23:35.520Z,22.30
2018-03-25T18:26:03.189Z,22.80
2018-03-25T18:28:30.246Z,22.80
2018-03-25T18:30:57.683Z,23.00
2018-03-25T18:33:24.875Z,23.30
2018-03-25T18:35:52.003Z,23.10
2018-03-25T18:38:19.584Z,23.00
2018-03-25T18:40:46.746Z,23.10
2018-03-25T18:43:13.726Z,23.70
2018-03-25T18:45:40.752Z,23.20
2018-03-25T18:48:08.361Z,23.00
2018-03-25T18:50:36.318Z,23.00
2018-03-25T18:53:04.204Z,23.50
2018-03-25T18:55:32.542Z,23.10
2018-03-25T18:57:59.914Z,22.90
2018-03-25T19:00:28.415Z,22.90
2018-03-25T19:02:56.255Z,22.90
2018-03-25T19:05:24.072Z,22.80
2018-03-25T19:07:52.731Z,22.30
2018-03-25T19:10:21.741Z,22.20
2018-03-25T19:12:50.738Z,22.80
2018-03-25T19:15:19.694Z,22.20
2018-03-25T19:17:47.269Z,22.30
2018-03-25T19:20:14.830Z,22.20
2018-03-25T19:22:43.379Z,22.20
2018-03-25T19:25:11.514Z,22.10
2018-03-25T19:27:38.973Z,22.10
2018-03-25T19:30:08.985Z,22.10
2018-03-25T19:32:36.469Z,22.10
2018-03-25T19:35:05.272Z,22.30
2018-03-25T19:37:33.716Z,22.20
2018-03-25T19:40:01.454Z,22.70
2018-03-25T19:42:28.975Z,22.70
2018-03-25T19:44:57.842Z,22.00
2018-03-25T19:47:26.180Z,22.00
2018-03-25T19:49:54.088Z,21.40
2018-03-25T19:52:21.277Z,21.40
2018-03-25T19:54:54.117Z,22.70
2018-03-25T19:57:25.057Z,22.60
2018-03-25T19:59:54.139Z,22.70
2018-03-25T20:02:23.783Z,22.80
2018-03-25T20:04:50.792Z,22.70
2018-03-25T20:07:17.898Z,22.80
2018-03-25T20:09:44.973Z,22.90
2018-03-25T20:12:11.971Z,22.80
2018-03-25T20:14:39.151Z,22.80
2018-03-25T20:17:06.315Z,22.80
2018-03-25T20:19:33.861Z,22.80
2018-03-25T20:22:00.911Z,22.80
2018-03-25T20:24:28.222Z,22.70
2018-03-25T20:26:55.228Z,22.80
2018-03-25T20:29:22.190Z,22.80
2018-03-25T20:31:49.929Z,22.70
2018-03-25T20:34:16.914Z,22.60
2018-03-25T20:36:44.267Z,22.60
2018-03-25T20:39:11.272Z,22.10
2018-03-25T20:41:38.219Z,22.10
2018-03-25T20:44:06.149Z,22.20
2018-03-25T20:46:33.084Z,22.20
2018-03-25T20:49:00.052Z,22.10
2018-03-25T20:51:27.034Z,22.10
2018-03-25T20:53:54.078Z,22.00
2018-03-25T20:56:22.408Z,22.10
2018-03-25T20:58:49.342Z,22.00
2018-03-25T21:01:16.122Z,22.10
2018-03-25T21:03:43.041Z,22.10
2018-03-25T21:06:10.140Z,22.10
2018-03-25T21:08:38.649Z,21.80
2018-03-25T21:11:05.657Z,22.00
2018-03-25T21:13:32.504Z,22.00
2018-03-25T21:15:59.466Z,21.90
2018-03-25T21:18:26.633Z,21.90
2018-03-25T21:20:54.489Z,22.00
2018-03-25T21:23:21.332Z,22.00
2018-03-25T21:25:48.288Z,22.10
2018-03-25T21:28:15.177Z,22.00
2018-03-25T21:30:42.201Z,21.90
2018-03-25T21:33:10.701Z,22.00
2018-03-25T21:35:39.147Z,22.00
2018-03-25T21:38:05.959Z,21.90
2018-03-25T21:40:32.871Z,21.90
2018-03-25T21:43:00.046Z,21.50
2018-03-25T21:45:27.834Z,21.60
2018-03-25T21:47:56.306Z,21.90
2018-03-25T21:50:23.939Z,21.90
2018-03-25T21:52:50.877Z,21.60
2018-03-25T21:55:17.840Z,21.50
2018-03-25T21:57:44.884Z,21.90
2018-03-25T22:00:12.648Z,21.50
2018-03-25T22:02:39.858Z,21.40
2018-03-25T22:05:06.753Z,21.40
2018-03-25T22:07:33.712Z,21.50
2018-03-25T22:10:00.676Z,21.40
2018-03-25T22:12:28.048Z,21.40
2018-03-25T22:14:55.993Z,21.40
2018-03-25T22:17:22.846Z,21.30
2018-03-25T22:19:49.788Z,21.50
2018-03-25T22:22:17.668Z,21.30
2018-03-25T22:24:44.623Z,21.40
2018-03-25T22:27:11.667Z,21.40
2018-03-25T22:29:38.609Z,21.40
2018-03-25T22:32:05.527Z,21.40
2018-03-25T22:34:32.367Z,21.40
2018-03-25T22:37:00.491Z,21.20
2018-03-25T22:39:27.761Z,21.20
2018-03-25T22:41:56.076Z,21.30
2018-03-25T22:44:23.045Z,21.40
2018-03-25T22:46:50.130Z,21.20
2018-03-25T22:49:17.089Z,21.30
2018-03-25T22:51:44.034Z,21.30
2018-03-25T22:54:11.653Z,21.30
2018-03-25T22:56:38.668Z,20.80
2018-03-25T22:59:06.281Z,21.20
2018-03-25T23:01:33.232Z,20.90
2018-03-25T23:04:00.120Z,21.20
2018-03-25T23:06:27.056Z,20.80
2018-03-25T23:08:54.119Z,20.70
2018-03-25T23:11:21.605Z,20.80
2018-03-25T23:13:49.226Z,20.60
2018-03-25T23:16:16.095Z,20.70
2018-03-25T23:18:42.923Z,20.90
2018-03-25T23:21:10.203Z,20.90
2018-03-25T23:23:37.969Z,20.90
2018-03-25T23:26:04.878Z,20.90
2018-03-25T23:28:31.884Z,20.60
2018-03-25T23:30:58.707Z,20.80
2018-03-25T23:33:25.992Z,20.80
2018-03-25T23:35:53.592Z,20.80
2018-03-25T23:38:20.806Z,20.60
2018-03-25T23:40:47.857Z,20.70
2018-03-25T23:43:15.454Z,20.80
2018-03-25T23:45:42.304Z,20.50
2018-03-25T23:48:09.964Z,20.50
2018-03-25T23:50:38.296Z,20.80
2018-03-25T23:53:05.259Z,20.80
2018-03-25T23:55:32.721Z,20.80
2018-03-25T23:57:59.676Z,20.60
